sensor_id;sensor_type;location;lat;lon;timestamp;P1;durP1;ratioP1;P2;durP2;ratioP2
69765;SDS011;57039;48.014;21.384;2023-02-26T00:00:45;10.77;;;4.70;;
69765;SDS011;57039;48.014;21.384;2023-02-26T00:01:48;8.68;;;3.67;;
69765;SDS011;57039;48.014;21.384;2023-02-26T00:02:51;8.18;;;3.90;;
69765;SDS011;57039;48.014;21.384;2023-02-26T00:03:55;8.02;;;4.05;;
69765;SDS011;57039;48.014;21.384;2023-02-26T00:04:58;7.18;;;3.92;;
69765;SDS011;57039;48.014;21.384;2023-02-26T00:06:00;8.70;;;3.80;;
69765;SDS011;57039;48.014;21.384;2023-02-26T00:07:03;10.32;;;4.60;;
69765;SDS011;57039;48.014;21.384;2023-02-26T00:08:07;8.85;;;4.10;;
69765;SDS011;57039;48.014;21.384;2023-02-26T00:09:10;11.15;;;4.10;;
69765;SDS011;57039;48.014;21.384;2023-02-26T00:10:13;8.53;;;4.27;;
69765;SDS011;57039;48.014;21.384;2023-02-26T00:11:18;8.80;;;3.90;;
69765;SDS011;57039;48.014;21.384;2023-02-26T00:12:20;12.63;;;4.15;;
69765;SDS011;57039;48.014;21.384;2023-02-26T00:13:23;9.35;;;4.00;;
69765;SDS011;57039;48.014;21.384;2023-02-26T00:14:26;12.77;;;4.20;;
69765;SDS011;57039;48.014;21.384;2023-02-26T00:15:29;9.20;;;3.80;;
69765;SDS011;57039;48.014;21.384;2023-02-26T00:16:33;8.15;;;4.12;;
69765;SDS011;57039;48.014;21.384;2023-02-26T00:17:44;10.25;;;4.30;;
69765;SDS011;57039;48.014;21.384;2023-02-26T00:18:50;9.20;;;3.42;;
69765;SDS011;57039;48.014;21.384;2023-02-26T00:19:52;7.47;;;3.40;;
69765;SDS011;57039;48.014;21.384;2023-02-26T00:20:55;9.83;;;3.90;;
69765;SDS011;57039;48.014;21.384;2023-02-26T00:21:57;9.63;;;3.83;;
69765;SDS011;57039;48.014;21.384;2023-02-26T00:23:00;7.20;;;3.45;;
69765;SDS011;57039;48.014;21.384;2023-02-26T00:24:03;8.35;;;3.70;;
69765;SDS011;57039;48.014;21.384;2023-02-26T00:25:08;7.10;;;3.75;;
69765;SDS011;57039;48.014;21.384;2023-02-26T00:26:10;7.65;;;4.07;;
69765;SDS011;57039;48.014;21.384;2023-02-26T00:27:13;9.07;;;4.15;;
69765;SDS011;57039;48.014;21.384;2023-02-26T00:28:17;7.55;;;4.07;;
69765;SDS011;57039;48.014;21.384;2023-02-26T00:29:20;6.72;;;3.87;;
69765;SDS011;57039;48.014;21.384;2023-02-26T00:30:23;8.35;;;4.00;;
69765;SDS011;57039;48.014;21.384;2023-02-26T00:31:25;8.13;;;3.67;;
69765;SDS011;57039;48.014;21.384;2023-02-26T00:32:29;9.33;;;4.13;;
69765;SDS011;57039;48.014;21.384;2023-02-26T00:33:34;10.13;;;4.37;;
69765;SDS011;57039;48.014;21.384;2023-02-26T00:34:38;9.07;;;4.43;;
69765;SDS011;57039;48.014;21.384;2023-02-26T00:35:42;10.63;;;4.15;;
69765;SDS011;57039;48.014;21.384;2023-02-26T00:36:57;10.02;;;4.12;;
69765;SDS011;57039;48.014;21.384;2023-02-26T00:38:05;8.75;;;4.07;;
69765;SDS011;57039;48.014;21.384;2023-02-26T00:40:20;10.15;;;3.50;;
69765;SDS011;57039;48.014;21.384;2023-02-26T00:41:24;7.82;;;4.43;;
69765;SDS011;57039;48.014;21.384;2023-02-26T00:42:27;8.20;;;3.33;;
69765;SDS011;57039;48.014;21.384;2023-02-26T00:43:31;9.40;;;3.60;;
69765;SDS011;57039;48.014;21.384;2023-02-26T00:44:35;7.20;;;3.72;;
69765;SDS011;57039;48.014;21.384;2023-02-26T00:45:39;10.50;;;4.72;;
69765;SDS011;57039;48.014;21.384;2023-02-26T00:51:22;10.88;;;4.57;;
69765;SDS011;57039;48.014;21.384;2023-02-26T00:52:35;11.20;;;5.28;;
69765;SDS011;57039;48.014;21.384;2023-02-26T00:54:44;9.07;;;4.13;;
69765;SDS011;57039;48.014;21.384;2023-02-26T00:55:49;12.13;;;4.28;;
69765;SDS011;57039;48.014;21.384;2023-02-26T00:56:52;10.35;;;4.10;;
69765;SDS011;57039;48.014;21.384;2023-02-26T00:57:55;10.90;;;4.55;;
69765;SDS011;57039;48.014;21.384;2023-02-26T00:58:57;10.18;;;4.07;;
69765;SDS011;57039;48.014;21.384;2023-02-26T01:00:00;8.77;;;4.57;;
69765;SDS011;57039;48.014;21.384;2023-02-26T01:01:03;7.78;;;4.28;;
69765;SDS011;57039;48.014;21.384;2023-02-26T01:02:06;11.05;;;3.92;;
69765;SDS011;57039;48.014;21.384;2023-02-26T01:03:09;10.00;;;4.65;;
69765;SDS011;57039;48.014;21.384;2023-02-26T01:04:13;9.13;;;4.47;;
69765;SDS011;57039;48.014;21.384;2023-02-26T01:05:16;11.13;;;5.03;;
69765;SDS011;57039;48.014;21.384;2023-02-26T01:06:20;32.10;;;15.88;;
69765;SDS011;57039;48.014;21.384;2023-02-26T01:07:24;32.50;;;13.70;;
69765;SDS011;57039;48.014;21.384;2023-02-26T01:08:32;33.58;;;15.15;;
69765;SDS011;57039;48.014;21.384;2023-02-26T01:09:39;158.45;;;70.70;;
69765;SDS011;57039;48.014;21.384;2023-02-26T01:10:41;131.27;;;58.53;;
69765;SDS011;57039;48.014;21.384;2023-02-26T01:11:44;25.35;;;12.93;;
69765;SDS011;57039;48.014;21.384;2023-02-26T01:12:47;11.05;;;5.30;;
69765;SDS011;57039;48.014;21.384;2023-02-26T01:13:50;11.68;;;4.85;;
69765;SDS011;57039;48.014;21.384;2023-02-26T01:14:52;8.87;;;4.30;;
69765;SDS011;57039;48.014;21.384;2023-02-26T01:15:58;8.53;;;4.67;;
69765;SDS011;57039;48.014;21.384;2023-02-26T01:18:17;9.70;;;3.92;;
69765;SDS011;57039;48.014;21.384;2023-02-26T01:19:28;8.40;;;4.15;;
69765;SDS011;57039;48.014;21.384;2023-02-26T01:20:37;8.20;;;4.00;;
69765;SDS011;57039;48.014;21.384;2023-02-26T01:21:44;9.07;;;4.62;;
69765;SDS011;57039;48.014;21.384;2023-02-26T01:22:53;8.57;;;4.15;;
69765;SDS011;57039;48.014;21.384;2023-02-26T01:23:56;8.57;;;3.70;;
69765;SDS011;57039;48.014;21.384;2023-02-26T01:25:01;9.20;;;4.20;;
69765;SDS011;57039;48.014;21.384;2023-02-26T01:26:25;9.93;;;4.23;;
69765;SDS011;57039;48.014;21.384;2023-02-26T01:27:29;9.83;;;4.60;;
69765;SDS011;57039;48.014;21.384;2023-02-26T01:28:32;8.10;;;3.60;;
69765;SDS011;57039;48.014;21.384;2023-02-26T01:29:34;7.45;;;3.95;;
69765;SDS011;57039;48.014;21.384;2023-02-26T01:30:37;8.30;;;4.20;;
69765;SDS011;57039;48.014;21.384;2023-02-26T01:33:07;9.07;;;3.80;;
69765;SDS011;57039;48.014;21.384;2023-02-26T01:39:44;7.83;;;4.07;;
69765;SDS011;57039;48.014;21.384;2023-02-26T01:41:54;7.15;;;3.65;;
69765;SDS011;57039;48.014;21.384;2023-02-26T01:42:57;6.87;;;3.85;;
69765;SDS011;57039;48.014;21.384;2023-02-26T01:45:10;6.65;;;3.60;;
69765;SDS011;57039;48.014;21.384;2023-02-26T01:49:52;8.07;;;3.57;;
69765;SDS011;57039;48.014;21.384;2023-02-26T01:50:55;7.97;;;4.37;;
69765;SDS011;57039;48.014;21.384;2023-02-26T01:51:59;7.65;;;3.60;;
69765;SDS011;57039;48.014;21.384;2023-02-26T01:55:32;8.00;;;3.80;;
69765;SDS011;57039;48.014;21.384;2023-02-26T01:56:35;7.82;;;3.47;;
69765;SDS011;57039;48.014;21.384;2023-02-26T01:57:37;7.10;;;3.58;;
69765;SDS011;57039;48.014;21.384;2023-02-26T01:58:40;8.55;;;3.95;;
69765;SDS011;57039;48.014;21.384;2023-02-26T01:59:44;9.55;;;3.80;;
69765;SDS011;57039;48.014;21.384;2023-02-26T02:00:47;8.20;;;3.63;;
69765;SDS011;57039;48.014;21.384;2023-02-26T02:01:51;8.20;;;4.00;;
69765;SDS011;57039;48.014;21.384;2023-02-26T02:02:55;7.00;;;3.62;;
69765;SDS011;57039;48.014;21.384;2023-02-26T02:03:58;7.18;;;4.12;;
69765;SDS011;57039;48.014;21.384;2023-02-26T02:05:05;7.90;;;4.18;;
69765;SDS011;57039;48.014;21.384;2023-02-26T02:06:10;8.10;;;3.30;;
69765;SDS011;57039;48.014;21.384;2023-02-26T02:07:17;7.25;;;3.53;;
69765;SDS011;57039;48.014;21.384;2023-02-26T02:08:20;7.07;;;3.60;;
69765;SDS011;57039;48.014;21.384;2023-02-26T02:09:23;7.70;;;3.90;;
69765;SDS011;57039;48.014;21.384;2023-02-26T02:10:26;7.82;;;4.20;;
69765;SDS011;57039;48.014;21.384;2023-02-26T02:11:29;8.97;;;3.97;;
69765;SDS011;57039;48.014;21.384;2023-02-26T02:12:40;9.53;;;4.63;;
69765;SDS011;57039;48.014;21.384;2023-02-26T02:13:59;11.90;;;5.30;;
69765;SDS011;57039;48.014;21.384;2023-02-26T02:16:22;26.02;;;12.00;;
69765;SDS011;57039;48.014;21.384;2023-02-26T02:17:50;30.85;;;13.88;;
69765;SDS011;57039;48.014;21.384;2023-02-26T02:18:52;24.27;;;11.25;;
69765;SDS011;57039;48.014;21.384;2023-02-26T02:24:38;12.97;;;5.67;;
69765;SDS011;57039;48.014;21.384;2023-02-26T02:30:37;13.05;;;4.18;;
69765;SDS011;57039;48.014;21.384;2023-02-26T02:33:14;10.40;;;4.20;;
69765;SDS011;57039;48.014;21.384;2023-02-26T02:38:22;9.43;;;4.60;;
69765;SDS011;57039;48.014;21.384;2023-02-26T02:39:29;7.53;;;4.50;;
69765;SDS011;57039;48.014;21.384;2023-02-26T02:40:34;9.75;;;4.93;;
69765;SDS011;57039;48.014;21.384;2023-02-26T02:41:39;10.02;;;4.68;;
69765;SDS011;57039;48.014;21.384;2023-02-26T02:44:10;9.98;;;4.93;;
69765;SDS011;57039;48.014;21.384;2023-02-26T02:45:36;9.35;;;4.60;;
69765;SDS011;57039;48.014;21.384;2023-02-26T02:46:41;13.27;;;4.97;;
69765;SDS011;57039;48.014;21.384;2023-02-26T02:47:46;9.90;;;4.00;;
69765;SDS011;57039;48.014;21.384;2023-02-26T02:48:53;13.18;;;5.50;;
69765;SDS011;57039;48.014;21.384;2023-02-26T02:51:24;11.75;;;4.28;;
69765;SDS011;57039;48.014;21.384;2023-02-26T02:52:28;8.45;;;4.35;;
69765;SDS011;57039;48.014;21.384;2023-02-26T03:04:12;17.35;;;4.97;;
